Time;durP1;ratioP1;P1;durP2;ratioP2;P2;SDS_P1;SDS_P2;PMS_P1;PMS_P2;Temp;Humidity;BMP_temperature;BMP_pressure;BME280_temperature;BME280_humidity;BME280_pressure;Samples;Min_cycle;Max_cycle;Signal;HPM_P1;HPM_P2
2022/09/11 00:01:29;;;;;;;14.07;10.63;;;;;;;-143.48;81.75;78666.63;5073128;28;20031;-42
2022/09/11 00:03:55;;;;;;;17.23;10.02;;;;;;;-143.48;81.38;78676.53;5073379;28;20479;-41
2022/09/11 00:06:22;;;;;;;14.07;9.73;;;;;;;-143.48;81.31;78688.44;5073620;28;20063;-40
2022/09/11 00:08:59;;;;;;;14.50;9.55;;;;;;;-143.48;82.10;78682.50;5055793;28;20033;-40
2022/09/11 00:11:27;;;;;;;15.63;10.20;;;;;;;-143.48;81.92;78680.50;5073602;28;20119;-41
2022/09/11 00:13:53;;;;;;;17.45;10.88;;;;;;;-143.48;82.55;78688.44;5073535;28;20033;-41
2022/09/11 00:16:34;;;;;;;17.90;10.50;;;;;;;-143.48;82.71;78680.50;5073530;28;20463;-41
2022/09/11 00:19:03;;;;;;;16.02;10.52;;;;;;;-143.48;82.56;78672.56;5074028;28;20074;-41
2022/09/11 00:21:28;;;;;;;17.77;10.60;;;;;;;-143.48;82.47;78670.59;5073692;28;20027;-40
2022/09/11 00:23:55;;;;;;;18.83;10.68;;;;;;;-143.48;82.28;78676.53;5073167;28;20383;-40
2022/09/11 00:26:20;;;;;;;23.27;11.55;;;;;;;-143.48;81.95;78700.34;5073175;28;20078;-41
2022/09/11 00:28:46;;;;;;;18.85;11.95;;;;;;;-143.48;82.31;78712.25;5072471;28;20028;-41
2022/09/11 00:31:15;;;;;;;16.52;11.52;;;;;;;-143.48;82.61;78722.16;5072241;28;20646;-40
2022/09/11 00:33:41;;;;;;;18.08;11.88;;;;;;;-143.48;82.93;78726.13;5073254;28;20025;-41
2022/09/11 00:36:11;;;;;;;17.88;10.65;;;;;;;-143.48;82.54;78720.19;5073213;28;20028;-41
2022/09/11 00:38:37;;;;;;;14.73;10.63;;;;;;;-143.48;82.83;78700.34;5073326;28;20384;-41
2022/09/11 00:41:06;;;;;;;17.10;10.95;;;;;;;-143.48;82.10;78712.25;5073291;28;20024;-41
2022/09/11 00:43:54;;;;;;;17.38;10.40;;;;;;;-143.48;82.25;78724.16;5073075;28;20077;-41
2022/09/11 00:46:21;;;;;;;15.88;10.65;;;;;;;-143.48;82.18;78742.00;5073233;28;20028;-41
2022/09/11 00:48:48;;;;;;;14.43;10.20;;;;;;;-143.48;82.69;78734.06;5054996;28;20431;-40
2022/09/11 00:51:28;;;;;;;15.43;11.07;;;;;;;-143.48;83.20;78745.97;5073253;28;20028;-40
2022/09/11 00:53:56;;;;;;;14.23;10.23;;;;;;;-143.48;82.79;78728.13;5073306;28;20020;-41
2022/09/11 00:56:26;;;;;;;15.25;10.20;;;;;;;-143.48;82.16;78726.13;5073043;28;20451;-41
2022/09/11 00:58:53;;;;;;;18.00;10.27;;;;;;;-143.48;82.21;78724.16;5072901;28;20017;-40
2022/09/11 01:01:19;;;;;;;13.55;10.18;;;;;;;-143.48;81.88;78724.16;5075051;28;20044;-40
2022/09/11 01:03:44;;;;;;;18.50;11.02;;;;;;;-143.48;81.60;78732.09;5076938;28;20020;-41
2022/09/11 01:06:10;;;;;;;17.85;11.15;;;;;;;-143.48;81.91;78738.03;5076795;28;20402;-41
2022/09/11 01:08:36;;;;;;;16.35;11.18;;;;;;;-143.48;81.54;78734.06;5059527;28;20087;-41
2022/09/11 01:11:17;;;;;;;16.52;11.77;;;;;;;-143.48;82.29;78742.00;5076584;28;20040;-41
2022/09/11 01:13:58;;;;;;;14.52;10.15;;;;;;;-143.48;82.25;78747.94;5076502;28;20115;-41
2022/09/11 01:16:41;;;;;;;18.60;11.32;;;;;;;-143.48;82.67;78771.75;5076802;28;20424;-41
2022/09/11 01:19:46;;;;;;;17.13;11.20;;;;;;;-143.48;83.42;78771.75;5076843;28;20463;-41
2022/09/11 01:22:19;;;;;;;16.30;11.18;;;;;;;-143.48;83.04;78765.78;5076736;28;20478;-41
2022/09/11 01:25:28;;;;;;;17.05;11.30;;;;;;;-143.48;83.16;78751.91;5076668;28;20020;-42
2022/09/11 01:27:57;;;;;;;17.85;11.48;;;;;;;-143.48;83.03;78749.94;5075614;28;20036;-41
2022/09/11 01:30:28;;;;;;;18.25;11.90;;;;;;;-143.48;82.91;78755.88;5076540;28;20028;-42
2022/09/11 01:33:11;;;;;;;18.58;11.82;;;;;;;-143.48;82.13;78779.69;5058377;28;20021;-41
2022/09/11 01:35:41;;;;;;;20.08;11.82;;;;;;;-143.48;82.88;78795.53;5076564;28;20036;-42
2022/09/11 01:38:16;;;;;;;19.00;12.02;;;;;;;-143.48;83.63;78783.66;5076138;28;20031;-42
2022/09/11 01:40:48;;;;;;;17.27;11.13;;;;;;;-143.48;83.27;78769.75;5076665;28;20028;-41
2022/09/11 01:43:20;;;;;;;18.13;10.20;;;;;;;-143.48;82.23;78807.44;5076393;28;20239;-41
2022/09/11 01:45:48;;;;;;;17.13;10.57;;;;;;;-143.48;82.78;78805.47;5075875;28;20296;-41
2022/09/11 01:48:21;;;;;;;15.30;10.70;;;;;;;-143.48;82.90;78791.59;5076749;28;20032;-40
2022/09/11 01:50:48;;;;;;;14.52;10.07;;;;;;;-143.48;82.74;78781.66;5075958;28;20463;-41
2022/09/11 01:53:17;;;;;;;15.52;11.02;;;;;;;-143.48;83.05;78789.59;5075653;28;20032;-41
2022/09/11 01:55:54;;;;;;;18.38;11.68;;;;;;;-143.48;82.86;78781.66;5075855;28;20071;-42
2022/09/11 01:58:25;;;;;;;18.05;11.55;;;;;;;-143.48;83.06;78779.69;5076005;28;20024;-41
2022/09/11 02:00:58;;;;;;;16.40;10.77;;;;;;;-143.48;82.72;78781.66;5075988;28;20029;-41
2022/09/11 02:03:29;;;;;;;15.07;10.32;;;;;;;-143.48;81.94;78799.50;5057725;28;20131;-41
2022/09/11 02:05:59;;;;;;;13.55;9.63;;;;;;;-143.48;81.99;78817.38;5075655;28;20482;-38
2022/09/11 02:08:31;;;;;;;14.63;9.38;;;;;;;-143.48;82.36;78847.13;5075620;28;20028;-40
2022/09/11 02:11:04;;;;;;;14.93;9.80;;;;;;;-143.48;82.37;78841.16;5075512;28;20135;-41
2022/09/11 02:13:46;;;;;;;16.60;8.95;;;;;;;-143.48;81.72;78851.09;5056504;28;20107;-40
2022/09/11 02:16:34;;;;;;;17.67;9.07;;;;;;;-143.48;81.95;78843.16;5075775;28;20482;-39
2022/09/11 02:19:03;;;;;;;13.63;9.40;;;;;;;-143.48;81.79;78835.22;5075724;28;20029;-40
2022/09/11 02:21:31;;;;;;;14.20;9.75;;;;;;;-143.48;81.37;78845.13;5075429;28;20029;-39
2022/09/11 02:23:57;;;;;;;17.80;9.70;;;;;;;-143.48;81.52;78837.19;5075319;28;20518;-41
2022/09/11 02:26:24;;;;;;;14.18;9.52;;;;;;;-143.48;81.67;78839.19;5075507;28;20048;-40
2022/09/11 02:28:51;;;;;;;14.30;10.20;;;;;;;-143.48;81.97;78833.22;5075290;28;20028;-40
2022/09/11 02:31:18;;;;;;;14.52;9.38;;;;;;;-143.48;81.56;78845.13;5057331;28;20043;-39
2022/09/11 02:33:45;;;;;;;16.33;10.57;;;;;;;-143.48;82.21;78849.09;5075405;28;20459;-41
2022/09/11 02:36:37;;;;;;;16.10;11.05;;;;;;;-143.48;82.74;78831.25;5075197;28;20429;-40
2022/09/11 02:39:26;;;;;;;18.23;10.98;;;;;;;-143.48;82.47;78855.06;5074968;28;20036;-40
2022/09/11 02:41:57;;;;;;;19.38;10.60;;;;;;;-143.48;82.76;78849.09;5074982;28;20020;-41
2022/09/11 02:44:39;;;;;;;19.05;10.95;;;;;;;-143.48;82.76;78837.19;5075150;28;20516;-41
2022/09/11 02:48:01;;;;;;;18.85;10.80;;;;;;;-143.48;82.45;78829.25;5075139;28;20036;-40
2022/09/11 02:50:44;;;;;;;19.95;11.13;;;;;;;-143.48;81.84;78837.19;4974271;28;20039;-41
2022/09/11 02:53:19;;;;;;;18.25;11.45;;;;;;;-143.48;82.52;78839.19;4973964;28;20094;-40
2022/09/11 02:55:47;;;;;;;19.77;11.55;;;;;;;-143.48;82.41;78845.13;5038991;28;20501;-40
2022/09/11 02:58:21;;;;;;;20.83;11.18;;;;;;;-143.48;82.96;78841.16;5074945;28;20095;-40
2022/09/11 03:00:46;;;;;;;16.92;11.40;;;;;;;-143.48;83.19;78835.22;5074569;28;20028;-40
2022/09/11 03:03:12;;;;;;;19.90;11.30;;;;;;;-143.48;82.74;78837.19;5074738;28;20028;-37
2022/09/11 03:05:39;;;;;;;16.48;10.38;;;;;;;-143.48;82.63;78839.19;5074830;28;20021;-40
2022/09/11 03:08:04;;;;;;;20.70;11.35;;;;;;;-143.48;82.65;78845.13;5074554;28;20035;-41
2022/09/11 03:10:30;;;;;;;17.58;11.07;;;;;;;-143.48;82.45;78859.03;5074141;28;20395;-40
2022/09/11 03:12:57;;;;;;;16.30;10.77;;;;;;;-143.48;82.37;78859.03;5074536;28;20037;-42
2022/09/11 03:15:22;;;;;;;17.75;11.23;;;;;;;-143.48;82.41;78862.97;5074535;28;20016;-40
2022/09/11 03:17:47;;;;;;;19.08;11.48;;;;;;;-143.48;82.46;78868.94;5074506;28;20115;-41
2022/09/11 03:20:13;;;;;;;17.60;10.82;;;;;;;-143.48;82.51;78859.03;5074252;28;20103;-40
2022/09/11 03:22:38;;;;;;;17.58;9.98;;;;;;;-143.48;82.36;78870.91;5074327;28;20023;-41
2022/09/11 03:25:04;;;;;;;14.55;10.13;;;;;;;-143.48;82.35;78876.88;5074285;28;20056;-40
2022/09/11 03:27:29;;;;;;;15.18;9.75;;;;;;;-143.48;82.44;78882.81;5074343;28;20111;-39
2022/09/11 03:29:55;;;;;;;17.85;9.80;;;;;;;-143.48;81.97;78888.78;5056494;28;20096;-40
2022/09/11 03:32:21;;;;;;;14.68;8.85;;;;;;;-143.48;81.73;78888.78;5073963;28;20024;-41
2022/09/11 03:34:47;;;;;;;17.40;9.30;;;;;;;-143.48;81.40;78910.59;5074194;28;20017;-40
2022/09/11 03:37:14;;;;;;;14.48;9.63;;;;;;;-143.48;81.82;78916.53;5074108;28;20029;-40
2022/09/11 03:39:40;;;;;;;14.40;10.07;;;;;;;-143.48;82.33;78918.53;5073872;28;20356;-40
2022/09/11 03:42:05;;;;;;;18.85;9.70;;;;;;;-143.48;81.65;78928.44;5074105;28;20103;-39
2022/09/11 03:44:30;;;;;;;16.38;9.40;;;;;;;-143.48;81.58;78944.31;5073774;28;20107;-41
2022/09/11 03:46:56;;;;;;;12.95;9.23;;;;;;;-143.48;81.76;78928.44;5074036;28;20099;-40
2022/09/11 03:49:21;;;;;;;15.43;9.65;;;;;;;-143.48;81.19;78912.56;5073695;28;20517;-40
2022/09/11 03:51:46;;;;;;;14.85;9.52;;;;;;;-143.48;81.44;78904.63;5073842;28;20032;-40
2022/09/11 03:54:14;;;;;;;14.23;9.48;;;;;;;-143.48;81.31;78894.72;5073655;28;20016;-41
2022/09/11 03:56:39;;;;;;;12.20;9.25;;;;;;;-143.48;81.28;78898.69;5073568;28;20426;-41
2022/09/11 03:59:05;;;;;;;13.43;9.27;;;;;;;-143.48;80.59;78910.59;5055627;28;20035;-41
2022/09/11 04:01:30;;;;;;;15.75;10.25;;;;;;;-143.48;81.60;78926.47;5073750;28;20066;-40
2022/09/11 04:03:55;;;;;;;14.48;9.35;;;;;;;-143.48;81.52;78930.41;5073677;28;20103;-40
2022/09/11 04:06:21;;;;;;;14.40;9.70;;;;;;;-143.48;81.39;78944.31;5073732;28;20039;-41
2022/09/11 04:08:46;;;;;;;14.07;9.73;;;;;;;-143.48;81.58;78946.28;5073698;28;20177;-39
2022/09/11 04:11:13;;;;;;;15.10;9.98;;;;;;;-143.48;81.44;78952.25;5073377;28;20041;-40
2022/09/11 04:13:40;;;;;;;15.50;9.55;;;;;;;-143.48;81.39;78944.31;5074126;28;20475;-42
2022/09/11 04:16:24;;;;;;;14.90;10.15;;;;;;;-143.48;81.75;78948.28;5073641;28;20119;-40
2022/09/11 04:18:52;;;;;;;13.98;9.80;;;;;;;-143.48;81.60;78950.25;5073560;28;20043;-41
2022/09/11 04:21:17;;;;;;;20.58;9.77;;;;;;;-143.48;81.81;78948.28;5073783;28;20457;-40
2022/09/11 04:23:44;;;;;;;12.75;9.15;;;;;;;-143.48;81.77;78944.31;5073767;28;20096;-39
2022/09/11 04:26:18;;;;;;;13.52;9.23;;;;;;;-143.48;81.25;78948.28;5073282;28;20066;-39
2022/09/11 04:28:44;;;;;;;16.50;8.88;;;;;;;-143.48;81.31;78944.31;5073221;28;20028;-40
2022/09/11 04:31:10;;;;;;;13.15;8.75;;;;;;;-143.48;80.94;78983.97;5073414;28;20044;-40
2022/09/11 04:33:35;;;;;;;18.33;9.57;;;;;;;-143.48;81.41;78982.00;5073008;28;20028;-41
2022/09/11 04:36:05;;;;;;;13.98;9.48;;;;;;;-143.48;82.19;78980.00;5072564;28;20032;-40
2022/09/11 04:38:31;;;;;;;16.52;9.70;;;;;;;-143.48;82.11;78964.16;5073336;28;20024;-39
2022/09/11 04:41:00;;;;;;;22.08;9.68;;;;;;;-143.48;81.98;78956.22;5073091;28;20422;-39
2022/09/11 04:43:26;;;;;;;15.70;10.70;;;;;;;-143.48;82.46;78950.25;5073316;28;20052;-40
2022/09/11 04:45:52;;;;;;;15.82;10.52;;;;;;;-143.48;82.05;78952.25;5072986;28;20044;-41
2022/09/11 04:48:18;;;;;;;20.63;10.77;;;;;;;-143.48;82.23;78938.34;5073194;28;20565;-40
2022/09/11 04:50:43;;;;;;;17.67;10.73;;;;;;;-143.48;81.39;78978.03;5072953;28;20107;-39
2022/09/11 04:53:08;;;;;;;13.77;10.07;;;;;;;-143.48;81.60;78989.94;5072861;28;20029;-41
2022/09/11 04:55:34;;;;;;;16.92;9.88;;;;;;;-143.48;81.63;78995.88;5073216;28;20029;-41
2022/09/11 04:57:59;;;;;;;14.48;9.27;;;;;;;-143.48;81.87;79013.72;5072911;28;20031;-41
2022/09/11 05:00:24;;;;;;;14.40;9.60;;;;;;;-143.48;81.60;79019.69;5073101;28;20050;-41
2022/09/11 05:02:49;;;;;;;14.80;9.57;;;;;;;-143.48;81.30;79025.63;5073123;28;20478;-41
2022/09/11 05:05:15;;;;;;;13.75;9.43;;;;;;;-143.48;81.17;78999.84;5073259;28;20025;-40
2022/09/11 05:07:40;;;;;;;15.25;9.50;;;;;;;-143.48;81.07;78993.91;5073061;28;20025;-41
2022/09/11 05:10:06;;;;;;;14.30;9.32;;;;;;;-143.48;81.11;78987.94;5073119;28;20063;-41
2022/09/11 05:12:31;;;;;;;17.35;10.00;;;;;;;-143.48;81.27;78980.00;5073025;28;20067;-47
2022/09/11 05:14:57;;;;;;;16.05;10.05;;;;;;;-143.48;81.29;78974.06;5073027;28;20021;-40
2022/09/11 05:17:22;;;;;;;18.00;9.90;;;;;;;-143.48;81.21;78976.03;5054597;28;20472;-41
2022/09/11 05:19:48;;;;;;;14.40;9.20;;;;;;;-143.48;80.38;78999.84;5072724;28;20097;-40
2022/09/11 05:22:14;;;;;;;12.68;9.73;;;;;;;-143.48;81.05;79019.69;5072697;28;20017;-39
2022/09/11 05:24:40;;;;;;;14.55;9.43;;;;;;;-143.48;81.13;79025.63;5072916;28;20017;-49
2022/09/11 05:27:05;;;;;;;15.43;10.57;;;;;;;-143.48;81.12;79007.78;5072546;28;20394;-41
2022/09/11 05:29:31;;;;;;;14.43;9.90;;;;;;;-143.48;80.59;78999.84;5072563;28;20027;-40
2022/09/11 05:32:00;;;;;;;15.80;10.18;;;;;;;-143.48;81.00;78995.88;5072798;28;20025;-41
2022/09/11 05:34:29;;;;;;;15.48;10.45;;;;;;;-143.48;80.86;78983.97;5072616;28;20037;-40
2022/09/11 05:36:58;;;;;;;16.35;9.93;;;;;;;-143.48;80.68;78976.03;5072983;28;20113;-40
2022/09/11 05:39:24;;;;;;;14.55;9.45;;;;;;;-143.48;79.98;78999.84;5072461;28;20025;-39
2022/09/11 05:41:50;;;;;;;16.70;10.27;;;;;;;-143.48;80.92;79005.78;5072433;28;20032;-40
2022/09/11 05:44:16;;;;;;;18.45;10.90;;;;;;;-143.48;80.76;78991.91;5072404;28;20024;-41
2022/09/11 05:46:41;;;;;;;19.05;10.63;;;;;;;-143.48;80.42;78974.06;5072402;28;20028;-40
2022/09/11 05:49:07;;;;;;;16.52;10.52;;;;;;;-143.48;79.70;78964.16;5075509;28;20063;-41
2022/09/11 05:51:34;;;;;;;17.92;10.15;;;;;;;-143.48;79.61;78968.09;5075970;28;20364;-46
2022/09/11 05:54:00;;;;;;;13.82;10.10;;;;;;;-143.48;79.69;78956.22;5075828;28;20031;-41
2022/09/11 05:56:27;;;;;;;17.92;9.98;;;;;;;-143.48;79.25;78956.22;5076076;28;20020;-40
2022/09/11 05:58:52;;;;;;;17.35;10.40;;;;;;;-143.48;79.09;78930.41;5076369;28;20021;-41
2022/09/11 06:01:23;;;;;;;16.50;10.45;;;;;;;-143.48;78.75;78918.53;5076222;28;20028;-41
2022/09/11 06:03:49;;;;;;;14.32;10.27;;;;;;;-143.48;78.18;78914.56;5076255;28;20078;-40
2022/09/11 06:06:16;;;;;;;18.35;10.63;;;;;;;-143.48;78.05;78922.50;5075688;28;20034;-41
2022/09/11 06:08:43;;;;;;;16.65;11.05;;;;;;;-143.48;78.20;78908.59;5075612;28;20039;-40
2022/09/11 06:11:09;;;;;;;18.77;12.07;;;;;;;-143.48;78.20;78900.66;5075550;28;20075;-40
2022/09/11 06:13:37;;;;;;;22.73;12.27;;;;;;;-143.48;78.04;78882.81;5076038;28;20060;-39
2022/09/11 06:16:03;;;;;;;18.25;11.82;;;;;;;-143.48;77.93;78874.88;5057603;28;20048;-40
2022/09/11 06:18:29;;;;;;;17.35;11.45;;;;;;;-143.48;77.59;78878.84;5075509;28;20430;-39
2022/09/11 06:21:00;;;;;;;17.73;11.35;;;;;;;-143.48;77.86;78880.84;5075350;28;20031;-40
2022/09/11 06:23:26;;;;;;;19.58;12.23;;;;;;;-143.48;77.69;78874.88;5075455;28;20108;-39
2022/09/11 06:25:53;;;;;;;22.98;12.15;;;;;;;-143.48;77.59;78874.88;5057336;28;20360;-40
2022/09/11 06:28:21;;;;;;;19.15;12.40;;;;;;;-143.48;77.88;78851.09;5057526;28;20128;-40
2022/09/11 06:30:50;;;;;;;21.92;13.82;;;;;;;-143.48;77.27;78831.25;5075311;28;20032;-40
2022/09/11 06:33:16;;;;;;;19.90;13.25;;;;;;;-143.48;77.11;78801.50;5075237;28;20387;-40
2022/09/11 06:35:41;;;;;;;22.73;13.88;;;;;;;-143.48;77.24;78787.63;5075313;28;20020;-39
2022/09/11 06:38:06;;;;;;;21.38;14.27;;;;;;;-143.48;76.82;78769.75;5075343;28;20405;-40
2022/09/11 06:40:32;;;;;;;21.23;14.88;;;;;;;-143.48;76.21;78751.91;5075088;28;20029;-40
2022/09/11 06:42:57;;;;;;;19.77;14.43;;;;;;;-143.48;75.67;78734.06;5075274;28;20023;-40
2022/09/11 06:45:23;;;;;;;20.92;14.60;;;;;;;-143.48;76.12;78742.00;5075407;28;20020;-40
2022/09/11 06:47:48;;;;;;;25.85;14.90;;;;;;;-143.48;76.44;78732.09;5075115;28;20027;-41
2022/09/11 06:50:14;;;;;;;21.08;14.88;;;;;;;-143.48;76.63;78708.28;5074729;28;20054;-40
2022/09/11 06:52:39;;;;;;;21.85;14.88;;;;;;;-143.48;76.08;78706.28;5075185;28;20024;-41
2022/09/11 06:55:06;;;;;;;22.13;15.60;;;;;;;-143.48;76.77;78702.31;5074993;28;20404;-40
2022/09/11 06:57:31;;;;;;;24.92;15.70;;;;;;;-143.48;76.94;78666.63;5074865;28;20028;-41
2022/09/11 06:59:57;;;;;;;23.45;15.23;;;;;;;-143.48;76.01;78642.81;5074192;28;20492;-40
2022/09/11 07:02:22;;;;;;;21.02;14.60;;;;;;;-143.48;75.45;78628.94;5074792;28;20016;-41
2022/09/11 07:04:48;;;;;;;21.58;13.80;;;;;;;-143.48;72.71;78482.19;5056486;28;20135;-41
2022/09/11 07:07:13;;;;;;;19.00;13.82;;;;;;;-143.48;56.89;77956.66;5074412;28;20032;-42
2022/09/11 07:09:38;;;;;;;19.67;12.93;;;;;;;-143.48;47.49;77617.56;5074686;28;20491;-41
2022/09/11 07:12:04;;;;;;;15.52;11.32;;;;;;;-143.48;45.12;77514.47;5074279;28;20044;-42
2022/09/11 07:14:30;;;;;;;14.85;10.63;;;;;;;-143.48;43.23;77439.13;5074621;28;20020;-40
2022/09/11 07:16:55;;;;;;;13.70;10.35;;;;;;;-143.48;42.68;77403.44;5074475;28;20025;-41
2022/09/11 07:19:23;;;;;;;14.70;8.95;;;;;;;-143.48;42.26;77365.75;5074501;28;20027;-41
2022/09/11 07:21:49;;;;;;;10.45;7.85;;;;;;;-143.48;41.59;77302.31;5074474;28;20052;-41
2022/09/11 07:24:14;;;;;;;12.20;7.22;;;;;;;-143.48;41.31;77280.50;5074215;28;20471;-41
2022/09/11 07:26:39;;;;;;;8.80;6.97;;;;;;;-143.48;41.25;77278.50;5074099;28;20020;-41
2022/09/11 07:29:05;;;;;;;10.68;6.32;;;;;;;-143.48;41.34;77288.44;5074061;28;20073;-41
2022/09/11 07:31:32;;;;;;;8.13;5.43;;;;;;;-143.48;41.08;77274.56;5074629;28;20020;-42
2022/09/11 07:33:58;;;;;;;8.85;5.32;;;;;;;-143.48;40.89;77266.63;5074410;28;20103;-41
2022/09/11 07:36:26;;;;;;;7.45;4.68;;;;;;;-143.48;40.16;77246.78;5074089;28;20024;-54
2022/09/11 07:38:53;;;;;;;5.55;4.53;;;;;;;-143.48;42.28;77328.09;5074189;28;20115;-42
2022/09/11 07:41:21;;;;;;;5.68;4.20;;;;;;;-143.48;41.29;77232.91;5074083;28;20397;-41
2022/09/11 07:43:50;;;;;;;14.07;4.03;;;;;;;-143.48;41.68;77322.13;5073817;28;20073;-42
2022/09/11 07:46:16;;;;;;;8.75;4.65;;;;;;;-143.48;50.81;77861.47;5073737;28;20057;-41
2022/09/11 07:48:41;;;;;;;9.05;5.22;;;;;;;-143.48;57.48;78095.47;5056007;28;20020;-41
2022/09/11 07:51:09;;;;;;;10.80;6.20;;;;;;;-143.48;61.46;78206.50;5073828;28;20024;-41
2022/09/11 07:53:45;;;;;;;13.50;5.88;;;;;;;-143.48;63.32;78260.06;5074338;28;20081;-40
2022/09/11 07:56:19;;;;;;;10.68;6.15;;;;;;;-143.48;65.39;78311.63;5073908;28;20585;-40
2022/09/11 07:58:45;;;;;;;13.13;6.35;;;;;;;-143.48;66.34;78323.53;5073505;28;20020;-41
2022/09/11 08:01:14;;;;;;;13.38;7.05;;;;;;;-143.48;67.45;78329.47;5073802;28;20111;-41
2022/09/11 08:03:40;;;;;;;13.77;7.53;;;;;;;-143.48;67.63;78353.28;5073405;28;20053;-41
2022/09/11 08:06:08;;;;;;;9.23;7.15;;;;;;;-143.48;67.65;78357.22;5073797;28;20028;-40
2022/09/11 08:08:34;;;;;;;14.25;8.48;;;;;;;-143.48;64.58;78111.31;5073485;28;20028;-41
2022/09/11 08:11:15;;;;;;;12.85;7.35;;;;;;;-143.48;48.28;77581.88;5072451;28;20040;-42
2022/09/11 08:13:40;;;;;;;9.93;5.78;;;;;;;-143.48;46.30;77516.44;5073978;28;20029;-42
2022/09/11 08:16:07;;;;;;;7.05;4.80;;;;;;;-143.48;44.38;77395.50;5073564;28;20042;-42
2022/09/11 08:18:34;;;;;;;8.10;4.30;;;;;;;-143.48;51.01;77847.59;5074334;28;20458;-42
2022/09/11 08:21:09;;;;;;;8.15;5.28;;;;;;;-143.48;57.96;78111.31;5073458;28;20099;-41
2022/09/11 08:23:36;;;;;;;9.98;4.30;;;;;;;-143.48;60.15;78202.56;5073516;28;20032;-41
2022/09/11 08:26:14;;;;;;;8.82;3.75;;;;;;;-143.48;50.96;77734.56;5073847;28;20020;-42
2022/09/11 08:28:44;;;;;;;5.63;2.70;;;;;;;-143.48;45.25;77675.06;5072988;28;20078;-42
2022/09/11 08:31:10;;;;;;;8.43;3.22;;;;;;;-143.48;49.83;77796.03;5073403;28;20451;-40
2022/09/11 08:33:36;;;;;;;6.57;2.72;;;;;;;-143.48;45.21;77659.22;5072811;28;20507;-42
2022/09/11 08:36:05;;;;;;;7.18;2.90;;;;;;;-143.48;46.23;77589.81;5073686;28;20090;-41
2022/09/11 08:38:31;;;;;;;6.10;2.50;;;;;;;-143.48;40.25;77300.31;5073437;28;20024;-41
2022/09/11 08:40:58;;;;;;;7.00;2.30;;;;;;;-143.48;38.72;77221.03;5073378;28;20348;-43
2022/09/11 08:43:26;;;;;;;7.10;2.35;;;;;;;-143.48;38.98;77209.13;5073089;28;20021;-43
2022/09/11 08:45:57;;;;;;;7.07;2.70;;;;;;;-143.48;38.31;77219.03;5072847;28;20025;-41
2022/09/11 08:48:51;;;;;;;7.65;2.35;;;;;;;-143.48;37.86;77193.25;5073326;28;20398;-42
2022/09/11 08:51:17;;;;;;;5.68;2.55;;;;;;;-143.48;38.55;77226.97;5072978;28;20030;-43
2022/09/11 08:53:44;;;;;;;7.95;2.42;;;;;;;-143.48;36.34;77123.88;5072891;28;20116;-41
2022/09/11 08:56:16;;;;;;;4.63;2.10;;;;;;;-143.48;37.48;77248.78;5073337;28;20028;-41
2022/09/11 08:59:01;;;;;;;4.57;2.30;;;;;;;-143.48;38.07;77201.19;5073207;28;20051;-42
2022/09/11 09:01:36;;;;;;;3.45;2.05;;;;;;;-143.48;37.34;77163.53;5073183;28;20112;-42
2022/09/11 09:04:58;;;;;;;5.15;2.20;;;;;;;-143.48;37.06;77224.97;5073448;28;20483;-41
2022/09/11 09:08:03;;;;;;;5.07;2.30;;;;;;;-143.48;40.34;77365.75;5006043;28;20410;-41
2022/09/11 09:11:06;;;;;;;6.18;2.22;;;;;;;-143.48;42.08;77476.78;5022418;28;20391;-41
2022/09/11 09:14:08;;;;;;;4.80;2.17;;;;;;;-143.48;42.67;77502.56;5054278;28;20037;-41
2022/09/11 09:16:44;;;;;;;5.47;2.50;;;;;;;-143.48;43.90;77500.59;5054783;28;20028;-40
2022/09/11 09:19:17;;;;;;;6.03;2.42;;;;;;;-143.48;43.62;77498.59;5055418;28;20081;-41
2022/09/11 09:21:48;;;;;;;6.65;2.50;;;;;;;-143.48;45.54;77663.19;5055996;28;20039;-41
2022/09/11 09:24:18;;;;;;;6.00;2.05;;;;;;;-143.48;46.03;77746.44;5059567;28;20103;-41
2022/09/11 09:26:49;;;;;;;4.97;2.20;;;;;;;-143.48;49.42;77885.25;5076385;28;20032;-44
2022/09/11 09:29:21;;;;;;;7.18;2.78;;;;;;;-143.48;50.16;77948.72;5076513;28;20049;-41
2022/09/11 09:31:50;;;;;;;4.40;2.13;;;;;;;-143.48;50.30;77962.59;5058489;28;20025;-40
2022/09/11 09:34:21;;;;;;;3.75;2.00;;;;;;;-143.48;51.77;78006.22;5076426;28;20028;-41
2022/09/11 09:37:28;;;;;;;4.97;2.05;;;;;;;-143.48;53.59;78061.75;5076485;28;20017;-41
2022/09/11 09:39:54;;;;;;;6.15;2.40;;;;;;;-143.48;51.93;78051.84;4974299;28;20117;-41
2022/09/11 09:42:41;;;;;;;7.20;2.20;;;;;;;-143.48;50.84;77996.31;4975755;28;20081;-41
2022/09/11 09:45:36;;;;;;;6.72;2.10;;;;;;;-143.48;48.80;77893.19;5039329;28;20079;-41
2022/09/11 09:48:02;;;;;;;6.60;2.33;;;;;;;-143.48;46.64;77855.50;5076404;28;20048;-41
2022/09/11 09:50:31;;;;;;;6.05;2.50;;;;;;;-143.48;48.74;77944.75;5076680;28;20078;-41
2022/09/11 09:53:10;;;;;;;6.15;2.40;;;;;;;-143.48;47.67;77865.44;5057887;28;20107;-41
2022/09/11 09:55:38;;;;;;;6.38;2.33;;;;;;;-143.48;45.55;77718.69;5076037;28;20025;-41
2022/09/11 09:58:03;;;;;;;4.95;2.13;;;;;;;-143.48;44.21;77659.22;5075891;28;20057;-42
2022/09/11 10:00:31;;;;;;;6.25;2.40;;;;;;;-143.48;44.54;77619.56;5058126;28;20020;-41
2022/09/11 10:02:57;;;;;;;4.18;1.95;;;;;;;-143.48;43.63;77516.44;5076109;28;20367;-42
2022/09/11 10:05:40;;;;;;;6.57;2.10;;;;;;;-143.48;43.04;77615.59;5075880;28;20027;-41
2022/09/11 10:08:24;;;;;;;6.15;1.95;;;;;;;-143.48;42.75;77601.72;5075908;28;20028;-42
2022/09/11 10:10:58;;;;;;;5.63;1.95;;;;;;;-143.48;41.48;77554.13;5075869;28;20044;-41
2022/09/11 10:13:27;;;;;;;5.45;2.25;;;;;;;-143.48;42.18;77637.41;5058062;28;20032;-41
2022/09/11 10:15:56;;;;;;;6.45;2.13;;;;;;;-143.48;41.77;77508.50;5075999;28;20103;-42
2022/09/11 10:18:27;;;;;;;5.90;1.90;;;;;;;-143.48;44.75;77694.91;5075609;28;20078;-42
2022/09/11 10:21:12;;;;;;;6.93;1.80;;;;;;;-143.48;46.27;77821.81;5075906;28;20112;-41
2022/09/11 10:23:58;;;;;;;5.97;2.05;;;;;;;-143.48;47.27;77875.34;5057974;28;20717;-41
2022/09/11 10:26:25;;;;;;;4.30;2.00;;;;;;;-143.48;49.04;77940.78;5075427;28;20107;-40
2022/09/11 10:28:53;;;;;;;5.30;2.22;;;;;;;-143.48;49.42;77964.56;5075678;28;20036;-42
2022/09/11 10:31:21;;;;;;;4.47;2.10;;;;;;;-143.48;50.52;77988.38;5075385;28;20036;-41
2022/09/11 10:33:55;;;;;;;5.07;1.92;;;;;;;-143.48;50.70;77998.28;5074444;28;20031;-42
2022/09/11 10:36:23;;;;;;;8.07;2.50;;;;;;;-143.48;50.83;78030.03;5075373;28;20024;-41
2022/09/11 10:38:49;;;;;;;6.45;2.10;;;;;;;-143.48;51.09;78055.81;5075547;28;20059;-42
2022/09/11 10:41:18;;;;;;;2.90;1.70;;;;;;;-143.48;48.14;78010.19;5076017;28;20116;-42
2022/09/11 10:44:00;;;;;;;5.68;2.10;;;;;;;-143.48;47.88;78041.91;5075089;28;20021;-42
2022/09/11 10:46:33;;;;;;;4.93;1.80;;;;;;;-143.48;47.08;78000.28;5076153;28;20028;-42
2022/09/11 10:49:01;;;;;;;5.20;2.05;;;;;;;-143.48;48.23;77970.53;5075018;28;20112;-42
2022/09/11 10:51:29;;;;;;;6.03;1.83;;;;;;;-143.48;47.90;77976.47;5075300;28;20462;-42
2022/09/11 10:54:25;;;;;;;4.40;1.88;;;;;;;-143.48;48.85;77986.41;5074976;28;20028;-42
2022/09/11 10:57:15;;;;;;;3.42;2.10;;;;;;;-143.48;50.89;78022.09;5056863;28;20039;-42
2022/09/11 10:59:58;;;;;;;4.78;2.00;;;;;;;-143.48;51.37;78041.91;5074896;28;20107;-42
2022/09/11 11:02:30;;;;;;;6.18;2.40;;;;;;;-143.48;51.27;78049.84;5074817;28;20028;-42
2022/09/11 11:04:58;;;;;;;6.97;2.23;;;;;;;-143.48;51.67;78049.84;5074985;28;20020;-42
2022/09/11 11:07:41;;;;;;;3.97;1.95;;;;;;;-143.48;52.29;78041.91;5074690;28;20066;-41
2022/09/11 11:11:02;;;;;;;6.22;2.08;;;;;;;-143.48;52.05;78030.03;5074842;28;20360;-42
2022/09/11 11:14:03;;;;;;;5.28;2.10;;;;;;;-143.48;52.53;78028.03;5018743;28;20453;-42
2022/09/11 11:16:40;;;;;;;8.10;2.03;;;;;;;-143.48;51.95;78047.88;5074471;28;20114;-41
2022/09/11 11:19:33;;;;;;;4.32;1.95;;;;;;;-143.48;49.93;78035.97;5074697;28;20115;-42
2022/09/11 11:22:45;;;;;;;5.18;1.85;;;;;;;-143.48;51.95;78065.72;5074085;28;20067;-42
2022/09/11 11:25:26;;;;;;;4.18;1.80;;;;;;;-143.48;49.53;78057.78;5074289;28;20024;-41
2022/09/11 11:28:24;;;;;;;4.32;2.03;;;;;;;-143.48;46.63;77901.13;5074147;28;20017;-41